Latest Weather Observations for Merimbula

IDN60801

Issued at 11:35 am EDT Saturday 29 November 2014 (issued every 30 minutes, with the page automatically refreshed every 10 minutes)

About weather observations | Map of weather stations | Latest weather observations for NSW | Other Formats
Station Details ID: 069147 Name: MERIMBULA AIRPORT AWS Lat: -36.91 Lon: 149.90 Height: 1.5 m
Data from the previous 72 hours. | See also: Recent months at Merimbula
Date/Time
EDT
Temp
°C
App
Temp
°C
Dew
Point
Rel
Hum
%
Delta-T
°C
Wind Press
QNH
hPa
Press
MSL
hPa
Rain
since 9 am
mm
Dir
 
Spd
km/h
Gust
km/h
Spd
kts
Gust
kts
29/11:30am 22.8 20.7 14.6 60 4.8 NE 19 30 10 16 1016.3 1016.3 0.0
29/11:00am 22.2 19.8 14.3 61 4.6 NE 20 32 11 17 1016.5 1016.5 0.0
29/10:30am 22.7 20.4 14.0 58 5.1 NE 19 26 10 14 1016.8 1016.8 0.0
29/10:00am 22.1 20.2 14.2 61 4.6 NE 17 24 9 13 1017.1 1017.1 0.0
29/09:30am 21.6 20.4 14.0 62 4.4 NE 13 20 7 11 1017.4 1017.4 0.0
29/09:00am 20.8 19.1 13.7 64 4.1 ENE 15 20 8 11 1017.7 1017.7 0.0
29/08:30am 20.3 19.4 13.7 66 3.8 ESE 11 15 6 8 1018.0 1018.0 0.0
29/08:00am 19.8 20.9 13.5 67 3.6 CALM 0 0 0 0 1018.2 1018.2 0.0
29/07:30am 17.5 18.4 13.0 75 2.5 CALM 0 0 0 0 1018.2 1018.2 0.0
29/07:00am 15.2 16.3 13.4 89 1.0 CALM 0 0 0 0 1017.7 1017.7 0.0
29/06:30am 13.6 14.5 12.8 95 0.4 CALM 0 0 0 0 1017.8 1017.8 0.0
29/06:00am 12.0 12.2 10.7 92 0.7 CALM 0 0 0 0 1017.8 1017.8 0.0
29/05:30am 12.3 12.6 11.0 92 0.7 CALM 0 0 0 0 1017.8 1017.8 0.0
29/05:00am 12.7 13.1 11.4 92 0.7 CALM 0 0 0 0 1017.8 1017.8 0.0
29/04:30am 13.0 13.5 11.6 91 0.7 CALM 0 0 0 0 1017.7 1017.7 0.0
29/04:00am 13.3 13.8 11.7 90 0.9 CALM 0 0 0 0 1017.9 1017.9 0.0
29/03:30am 13.3 13.8 11.5 89 1.0 CALM 0 0 0 0 1018.3 1018.3 0.0
29/03:00am 13.4 13.9 11.5 88 1.0 CALM 0 0 0 0 1018.3 1018.3 0.0
29/02:30am 13.9 14.4 11.6 86 1.2 CALM 0 0 0 0 1018.9 1018.9 0.0
29/02:00am 14.3 14.9 12.0 86 1.2 CALM 0 0 0 0 1019.2 1019.2 0.0
29/01:30am 14.4 13.3 11.9 85 1.3 SSW 9 11 5 6 1019.7 1019.7 0.0
29/01:00am 14.4 15.1 12.3 87 1.1 CALM 0 9 0 5 1020.0 1020.0 0.0
29/12:30am 14.3 15.0 12.2 87 1.1 CALM 0 0 0 0 1020.2 1020.2 0.0
29/12:00am 14.2 14.7 11.5 84 1.4 CALM 0 0 0 0 1020.5 1020.5 0.0
 
Date/Time
EDT
Temp
°C
App
Temp
°C
Dew
Point
Rel
Hum
%
Delta-T
°C
Wind Press
QNH
hPa
Press
MSL
hPa
Rain
since 9 am
mm
Dir
 
Spd
km/h
Gust
km/h
Spd
kts
Gust
kts
28/11:30pm 14.4 14.9 11.7 84 1.4 CALM 0 0 0 0 1020.7 1020.7 0.0
28/11:00pm 14.9 15.5 12.0 83 1.6 CALM 0 0 0 0 1020.7 1020.7 0.0
28/10:30pm 15.7 16.0 12.3 80 1.9 SSW 2 7 1 4 1020.9 1020.9 0.0
28/10:00pm 17.2 16.5 12.1 72 2.8 NNW 7 13 4 7 1020.9 1020.9 0.0
28/09:30pm 17.5 16.4 12.0 70 3.0 N 9 15 5 8 1020.7 1020.7 0.0
28/09:00pm 17.8 16.7 11.8 68 3.3 N 9 15 5 8 1020.5 1020.5 0.0
28/08:30pm 18.1 16.9 11.7 66 3.5 N 9 15 5 8 1020.4 1020.4 0.0
28/08:00pm 18.5 16.5 11.6 64 3.8 NNE 13 20 7 11 1020.3 1020.3 0.0
28/07:30pm 19.0 17.3 11.3 61 4.2 NNE 11 24 6 13 1020.3 1020.3 0.0
28/07:00pm 19.4 17.4 11.4 60 4.4 NNE 13 26 7 14 1020.3 1020.3 0.0
28/06:30pm 19.8 17.5 11.6 59 4.5 NNE 15 22 8 12 1020.2 1020.2 0.0
28/06:00pm 20.2 17.3 11.1 56 5.0 NE 17 28 9 15 1020.2 1020.2 0.0
28/05:30pm 20.6 17.8 11.5 56 5.0 NE 17 26 9 14 1020.3 1020.3 0.0
28/05:00pm 20.7 17.9 11.3 55 5.2 NE 17 30 9 16 1020.4 1020.4 0.0
28/04:30pm 21.4 18.2 11.4 53 5.5 ENE 19 28 10 15 1020.3 1020.3 0.0
28/04:00pm 21.4 18.2 11.4 53 5.5 NE 19 30 10 16 1020.4 1020.4 0.0
28/03:30pm 21.1 17.1 10.6 51 5.7 NE 22 33 12 18 1020.7 1020.7 0.0
28/03:00pm 21.3 17.9 11.1 52 5.6 NE 20 32 11 17 1021.0 1021.0 0.0
28/02:30pm 21.4 17.9 10.9 51 5.8 NE 20 30 11 16 1021.1 1021.1 0.0
28/02:00pm 21.9 18.7 11.3 51 5.9 ENE 19 32 10 17 1021.5 1021.5 0.0
28/01:30pm 21.1 17.8 10.9 52 5.6 NE 19 28 10 15 1021.9 1021.9 0.0
28/01:00pm 22.0 19.1 12.3 54 5.5 ENE 19 28 10 15 1022.2 1022.2 0.0
28/12:30pm 21.0 18.0 10.5 51 5.7 NE 17 26 9 14 1022.4 1022.4 0.0
28/12:00pm 21.2 18.1 11.5 54 5.4 NE 19 30 10 16 1022.7 1022.7 0.0
28/11:30am 20.8 17.6 11.4 55 5.2 ENE 19 26 10 14 1022.9 1022.9 0.0
28/11:00am 20.1 17.2 12.8 63 4.1 ENE 20 28 11 15 1023.0 1023.0 0.0
28/10:30am 19.9 17.0 12.4 62 4.2 ENE 19 26 10 14 1023.3 1023.3 0.0
28/10:00am 19.8 17.1 11.8 60 4.4 E 17 22 9 12 1023.3 1023.3 0.0
28/09:30am 19.8 17.9 13.0 65 3.8 E 15 24 8 13 1023.5 1023.5 0.0
28/09:00am 18.7 17.6 12.0 65 3.7 ESE 9 13 5 7 1023.9 1023.9 0.2
28/08:30am 17.3 17.4 11.6 69 3.1 ENE 2 11 1 6 1023.9 1023.9 0.2
28/08:00am 14.4 14.8 11.2 81 1.7 CALM 0 0 0 0 1023.9 1023.9 0.2
28/07:30am 13.2 13.6 11.1 87 1.1 CALM 0 0 0 0 1023.6 1023.6 0.2
28/07:00am 12.0 12.4 11.1 94 0.5 CALM 0 0 0 0 1023.3 1023.3 0.2
28/06:30am 10.8 10.9 10.2 96 0.3 CALM 0 0 0 0 1023.2 1023.2 0.2
28/06:00am 10.1 10.0 9.3 95 0.4 CALM 0 0 0 0 1023.2 1023.2 0.2
28/05:30am 10.0 9.8 9.2 95 0.4 CALM 0 0 0 0 1023.2 1023.2 0.2
28/05:00am 10.5 10.4 9.6 94 0.4 CALM 0 0 0 0 1023.0 1023.0 0.2
28/04:30am 10.7 10.7 9.8 94 0.5 CALM 0 0 0 0 1022.9 1022.9 0.2
28/04:00am 10.2 10.0 9.1 93 0.5 CALM 0 0 0 0 1023.0 1023.0 0.2
28/03:30am 11.5 10.4 10.6 94 0.5 SSW 7 9 4 5 1023.2 1023.2 0.2
28/03:00am 11.3 10.3 10.2 93 0.6 SW 6 9 3 5 1023.2 1023.2 0.2
28/02:30am 11.8 10.9 10.5 92 0.7 WSW 6 7 3 4 1023.3 1023.3 0.2
28/02:00am 11.8 11.9 10.2 90 0.8 CALM 0 0 0 0 1023.6 1023.6 0.2
28/01:30am 12.3 12.5 10.7 90 0.8 CALM 0 0 0 0 1024.0 1024.0 0.2
28/01:00am 12.6 12.8 10.7 88 1.0 CALM 0 0 0 0 1024.3 1024.3 0.2
28/12:30am 13.1 13.4 10.8 86 1.2 CALM 0 0 0 0 1024.5 1024.5 0.2
28/12:00am 13.7 14.1 11.2 85 1.3 CALM 0 0 0 0 1024.9 1024.9 0.2
 
Date/Time
EDT
Temp
°C
App
Temp
°C
Dew
Point
Rel
Hum
%
Delta-T
°C
Wind Press
QNH
hPa
Press
MSL
hPa
Rain
since 9 am
mm
Dir
 
Spd
km/h
Gust
km/h
Spd
kts
Gust
kts
27/11:30pm 14.1 14.3 10.5 79 1.9 CALM 0 2 0 1 1024.9 1024.9 0.2
27/11:00pm 14.8 14.0 11.0 78 2.0 S 6 7 3 4 1025.1 1025.1 0.2
27/10:30pm 15.2 14.4 11.0 76 2.2 S 6 7 3 4 1025.1 1025.1 0.2
27/10:00pm 15.7 14.8 11.3 75 2.3 S 7 13 4 7 1025.1 1025.1 0.2
27/09:30pm 16.2 15.0 11.6 74 2.5 SE 9 15 5 8 1024.9 1024.9 0.2
27/09:00pm 16.3 14.7 11.5 73 2.6 SE 11 17 6 9 1024.6 1024.6 0.2
27/08:30pm 16.5 14.2 11.6 73 2.7 SE 15 20 8 11 1024.6 1024.6 0.2
27/08:00pm 17.0 14.7 11.9 72 2.8 SE 15 22 8 12 1024.4 1024.4 0.2
27/07:30pm 17.1 15.1 11.4 69 3.1 SE 13 19 7 10 1024.1 1024.1 0.2
27/07:00pm 17.7 16.2 11.9 69 3.2 E 11 19 6 10 1023.8 1023.8 0.2
27/06:30pm 17.7 15.3 12.6 72 2.8 ENE 17 26 9 14 1023.5 1023.5 0.2
27/06:00pm 18.5 15.9 12.0 66 3.6 E 17 28 9 15 1023.4 1023.4 0.2
27/05:30pm 18.8 16.2 12.1 65 3.7 E 17 22 9 12 1023.3 1023.3 0.2
27/05:00pm 18.9 16.2 11.7 63 3.9 ESE 17 28 9 15 1023.2 1023.2 0.2
27/04:30pm 19.0 16.0 11.8 63 4.0 ESE 19 28 10 15 1023.1 1023.1 0.2
27/04:00pm 19.0 15.6 11.3 61 4.2 ESE 20 32 11 17 1023.2 1023.2 0.2
27/03:30pm 19.0 15.7 10.8 59 4.4 ESE 19 28 10 15 1023.3 1023.3 0.2
27/03:00pm 18.9 15.5 10.7 59 4.4 ESE 19 32 10 17 1023.4 1023.4 0.2
27/02:30pm 19.3 15.9 11.1 59 4.5 ESE 20 33 11 18 1023.5 1023.5 0.2
27/02:00pm 19.6 16.7 11.1 58 4.6 ESE 17 30 9 16 1023.5 1023.5 0.2
27/01:30pm 19.5 16.5 10.8 57 4.7 ESE 17 26 9 14 1023.4 1023.4 0.2
27/01:00pm 20.0 17.5 11.2 57 4.8 E 15 24 8 13 1023.2 1023.2 0.2
27/12:30pm 19.4 16.6 10.1 55 5.0 E 15 24 8 13 1023.1 1023.1 0.2
27/12:00pm 19.1 15.1 9.0 52 5.3 ESE 20 32 11 17 1022.9 1022.9 0.2
27/11:30am 19.1 15.4 9.6 54 5.0 ESE 19 30 10 16 1022.9 1022.9 0.2
27/11:00am 18.9 15.1 9.7 55 4.9 SE 20 30 11 16 1023.1 1023.1 0.2
27/10:30am 18.4 14.6 8.9 54 4.9 ESE 19 28 10 15 1023.2 1023.2 0.2
27/10:00am 18.0 16.0 8.8 55 4.7 S 9 19 5 10 1023.4 1023.4 0.0
27/09:30am 17.6 15.4 9.2 58 4.4 SW 11 17 6 9 1023.6 1023.6 0.0
27/09:00am 16.9 14.0 8.3 57 4.4 S 13 20 7 11 1023.8 1023.8 0.0
27/08:30am 16.2 13.1 8.7 61 3.8 S 15 20 8 11 1023.6 1023.6 0.0
27/08:00am 15.5 13.1 8.7 64 3.4 S 11 19 6 10 1023.6 1023.6 0.0
27/07:30am 14.9 13.6 9.1 68 3.0 SSE 6 9 3 5 1023.4 1023.4 0.0
27/07:00am 12.9 11.4 9.0 77 2.0 SSE 7 11 4 6 1023.2 1023.2 0.0
27/06:30am 11.5 10.3 10.4 93 0.6 SSW 7 11 4 6 1022.8 1022.8 0.0
27/06:00am 11.2 9.5 9.9 92 0.7 S 9 11 5 6 1022.7 1022.7 0.0
27/05:30am 11.3 9.9 9.7 90 0.8 S 7 9 4 5 1022.4 1022.4 0.0
27/05:00am 11.6 10.2 9.5 87 1.1 S 7 9 4 5 1022.1 1022.1 0.0
27/04:30am 12.4 11.1 10.1 86 1.2 S 7 9 4 5 1021.6 1021.6 0.0
27/04:00am 12.9 10.9 10.1 83 1.4 S 11 15 6 8 1021.4 1021.4 0.0
27/03:30am 13.3 11.9 11.0 86 1.2 S 9 11 5 6 1021.1 1021.1 0.0
27/03:00am 13.8 11.7 11.0 83 1.5 S 13 17 7 9 1021.1 1021.1 0.0
27/02:30am 14.2 12.4 11.0 81 1.7 S 11 15 6 8 1021.2 1021.2 0.0
27/02:00am 15.2 15.9 12.1 82 1.7 CALM 0 11 0 6 1021.3 1021.3 0.0
27/01:30am 15.4 15.0 12.5 83 1.6 SSW 6 9 3 5 1021.5 1021.5 0.0
27/01:00am 15.4 16.4 13.1 86 1.3 CALM 0 0 0 0 1021.6 1021.6 0.0
27/12:30am 15.5 16.2 13.5 88 1.1 SSW 2 7 1 4 1021.7 1021.7 0.0
27/12:00am 16.0 16.0 13.5 85 1.4 W 6 9 3 5 1021.8 1021.8 0.0
 
Date/Time
EDT
Temp
°C
App
Temp
°C
Dew
Point
Rel
Hum
%
Delta-T
°C
Wind Press
QNH
hPa
Press
MSL
hPa
Rain
since 9 am
mm
Dir
 
Spd
km/h
Gust
km/h
Spd
kts
Gust
kts
26/11:30pm 16.2 15.6 13.5 84 1.5 WNW 9 11 5 6 1021.8 1021.8 0.0
26/11:00pm 16.1 16.0 13.8 86 1.3 WSW 7 11 4 6 1021.9 1021.9 0.0
26/10:30pm 16.2 17.3 13.5 84 1.5 CALM 0 0 0 0 1021.9 1021.9 0.0
26/10:00pm 16.7 18.0 14.2 85 1.4 CALM 0 0 0 0 1021.8 1021.8 0.0
26/09:30pm 16.5 16.2 13.2 81 1.8 W 7 9 4 5 1021.6 1021.6 0.0
26/09:00pm 17.4 16.6 12.9 75 2.5 W 9 11 5 6 1021.1 1021.1 0.0
26/08:30pm 17.5 15.5 12.6 73 2.7 NW 15 20 8 11 1020.6 1020.6 0.0
26/08:00pm 17.6 16.8 12.9 74 2.6 W 9 11 5 6 1020.4 1020.4 0.0
26/07:30pm 18.2 18.5 13.5 74 2.7 NW 4 11 2 6 1020.0 1020.0 0.0
26/07:00pm 18.2 17.5 13.1 72 2.9 SE 9 13 5 7 1019.6 1019.6 0.0
26/06:30pm 17.8 16.7 13.1 74 2.6 SE 11 17 6 9 1019.2 1019.2 0.0
26/06:00pm 18.4 15.5 12.2 67 3.4 SE 19 26 10 14 1019.0 1019.0 0.0
26/05:30pm 18.8 16.4 12.5 67 3.5 SE 17 24 9 13 1018.8 1018.8 0.0
26/05:00pm 20.1 17.8 13.1 64 4.0 SE 17 24 9 13 1018.7 1018.7 0.0
26/04:30pm 19.6 17.2 12.6 64 3.9 SE 17 24 9 13 1018.7 1018.7 0.0
26/04:00pm 19.9 16.9 11.9 60 4.4 SE 19 28 10 15 1018.6 1018.6 0.0
26/03:30pm 20.0 17.7 13.0 64 4.0 ESE 17 24 9 13 1018.6 1018.6 0.0
26/03:00pm 19.8 16.9 12.3 62 4.2 SE 19 26 10 14 1018.7 1018.7 0.0
26/02:30pm 20.0 16.9 13.5 66 3.7 SE 22 30 12 16 1018.7 1018.7 0.0
26/02:00pm 20.3 17.5 13.3 64 4.0 SE 20 30 11 16 1018.7 1018.7 0.0
26/01:30pm 20.2 17.3 12.9 63 4.1 SE 20 30 11 16 1018.7 1018.7 0.0
26/01:00pm 21.0 18.7 14.6 67 3.7 SE 20 26 11 14 1018.6 1018.6 0.0
26/12:30pm 20.8 19.3 14.2 66 3.8 E 15 22 8 12 1018.6 1018.6 0.0
26/12:00pm 20.3 18.6 13.7 66 3.8 E 15 26 8 14 1018.7 1018.7 0.0

Other Formats:

Comma delimited format used in spreadsheet applications
http://www.bom.gov.au/fwo/IDN60801/IDN60801.95929.axf

JavaScript Object Notation format (JSON) in row-major order
http://www.bom.gov.au/fwo/IDN60801/IDN60801.95929.json